^^
Saratoga-Weather Station Historical Data
Daily Summary for August 10, 2020 Units:  Both    English   Metric
Daily Weekly Monthly Yearly Custom
  High: Low: Average:
Temperature: 72.7 °F /  22.6 °C 54.9 °F /  12.7 °C 62.8 °F /  17.1 °C
Dew Point: 63.5 °F /  17.5 °C 53.6 °F /  12 °C 58.1 °F /  14.5 °C
Humidity: 97% 64% 86%
Wind Speed: 8.9mph /  14.3km/h - 1.2mph /  2km/h
Wind Gust: 16mph /  25.7km/h - -
Wind- - WSW
Pressure: 29.8 in /  1007.8 hPa 29.6 in /  1001.7 hPa -
Precipitation: 0.13 in /  3.3 mm    
Historical Graphs
 
 
Tabular Data for August 10, 2020
Time Temperature Dew Point Pressure Wind Wind Speed Wind Gust Humidity Rainfall Rate (Hourly) solar
00:03 55.8 °F /  13.2 °C 54.3 °F /  12.4 °C 29.8in /  1007.8hPa Calm     95% 0in /  0.0mm 0 W/m2
00:08 55.8 °F /  13.2 °C 54.3 °F /  12.4 °C 29.8in /  1007.8hPa Calm     95% 0in /  0.0mm 0 W/m2
00:13 55.8 °F /  13.2 °C 54.3 °F /  12.4 °C 29.8in /  1007.8hPa Calm     95% 0in /  0.0mm 0 W/m2
00:18 55.6 °F /  13.1 °C 54.1 °F /  12.3 °C 29.8in /  1007.8hPa Calm     95% 0in /  0.0mm 0 W/m2
00:23 55.6 °F /  13.1 °C 54.1 °F /  12.3 °C 29.8in /  1007.5hPa Calm     95% 0in /  0.0mm 0 W/m2
00:28 55.6 °F /  13.1 °C 54.1 °F /  12.3 °C 29.8in /  1007.5hPa Calm     95% 0in /  0.0mm 0 W/m2
00:33 55.6 °F /  13.1 °C 54.1 °F /  12.3 °C 29.8in /  1007.5hPa Calm     95% 0in /  0.0mm 0 W/m2
00:38 55.6 °F /  13.1 °C 54.1 °F /  12.3 °C 29.8in /  1007.5hPa Calm     95% 0in /  0.0mm 0 W/m2
00:43 55.6 °F /  13.1 °C 54.1 °F /  12.3 °C 29.7in /  1007.1hPa Calm     95% 0in /  0.0mm 0 W/m2
00:48 55.4 °F /  13 °C 54 °F /  12.2 °C 29.7in /  1007.1hPa Calm     95% 0in /  0.0mm 0 W/m2
00:53 55.4 °F /  13 °C 54 °F /  12.2 °C 29.7in /  1007.1hPa Calm     95% 0in /  0.0mm 0 W/m2
00:58 55.2 °F /  12.9 °C 53.8 °F /  12.1 °C 29.7in /  1007.1hPa Calm     95% 0in /  0.0mm 0 W/m2
01:03 55.2 °F /  12.9 °C 53.8 °F /  12.1 °C 29.7in /  1006.8hPa Calm     95% 0in /  0.0mm 0 W/m2
01:08 55.2 °F /  12.9 °C 53.8 °F /  12.1 °C 29.7in /  1007.1hPa Calm     95% 0in /  0.0mm 0 W/m2
01:13 55.2 °F /  12.9 °C 53.8 °F /  12.1 °C 29.7in /  1006.8hPa Calm     95% 0in /  0.0mm 0 W/m2
01:18 55 °F /  12.8 °C 53.6 °F /  12 °C 29.7in /  1006.8hPa Calm     95% 0in /  0.0mm 0 W/m2
01:23 55 °F /  12.8 °C 53.6 °F /  12 °C 29.7in /  1006.8hPa Calm     95% 0in /  0.0mm 0 W/m2
01:29 55 °F /  12.8 °C 53.6 °F /  12 °C 29.7in /  1006.8hPa Calm     95% 0in /  0.0mm 0 W/m2
01:34 55 °F /  12.8 °C 54 °F /  12.2 °C 29.7in /  1006.8hPa Calm     96% 0in /  0.0mm 0 W/m2
01:39 55 °F /  12.8 °C 54 °F /  12.2 °C 29.7in /  1006.8hPa Calm     96% 0in /  0.0mm 0 W/m2
01:44 55 °F /  12.8 °C 54 °F /  12.2 °C 29.7in /  1006.8hPa Calm     96% 0in /  0.0mm 0 W/m2
01:49 55.2 °F /  12.9 °C 54.1 °F /  12.3 °C 29.7in /  1006.8hPa Calm     96% 0.01in /  0.2mm 0 W/m2
01:54 55.2 °F /  12.9 °C 54.1 °F /  12.3 °C 29.7in /  1006.4hPa Calm     96% 0.01in /  0.2mm 0 W/m2
01:59 55.2 °F /  12.9 °C 54.1 °F /  12.3 °C 29.7in /  1006.4hPa Calm     96% 0.01in /  0.2mm 0 W/m2
02:04 55.2 °F /  12.9 °C 54.1 °F /  12.3 °C 29.7in /  1006.4hPa Calm     96% 0.01in /  0.2mm 0 W/m2
02:09 55.4 °F /  13 °C 54.3 °F /  12.4 °C 29.7in /  1006.4hPa Calm     96% 0.01in /  0.2mm 0 W/m2
02:14 55.2 °F /  12.9 °C 54.1 °F /  12.3 °C 29.7in /  1006.4hPa Calm     96% 0.01in /  0.2mm 0 W/m2
02:19 55.2 °F /  12.9 °C 54.1 °F /  12.3 °C 29.7in /  1006.4hPa Calm     96% 0.01in /  0.2mm 0 W/m2
02:24 55.2 °F /  12.9 °C 54.1 °F /  12.3 °C 29.7in /  1006.4hPa Calm     96% 0.01in /  0.2mm 0 W/m2
02:29 55.2 °F /  12.9 °C 54.1 °F /  12.3 °C 29.7in /  1006.1hPa Calm     96% 0.01in /  0.2mm 0 W/m2
02:34 55.2 °F /  12.9 °C 54.1 °F /  12.3 °C 29.7in /  1006.1hPa SSE 0.9mph /  1.4km/h 2mph /  3.2km/h 96% 0.01in /  0.2mm 0 W/m2
02:39 55.2 °F /  12.9 °C 54.1 °F /  12.3 °C 29.7in /  1006.4hPa SSE 2mph /  3.2km/h 2mph /  3.2km/h 96% 0.01in /  0.2mm 0 W/m2
02:44 55 °F /  12.8 °C 54 °F /  12.2 °C 29.7in /  1006.1hPa SW 0.9mph /  1.4km/h 2mph /  3.2km/h 96% 0.01in /  0.2mm 0 W/m2
02:49 55.2 °F /  12.9 °C 54.1 °F /  12.3 °C 29.7in /  1006.1hPa Calm     96% 0in /  0.0mm 0 W/m2
02:54 55.2 °F /  12.9 °C 54.1 °F /  12.3 °C 29.7in /  1006.1hPa Calm     96% 0in /  0.0mm 0 W/m2
02:59 55.2 °F /  12.9 °C 54.1 °F /  12.3 °C 29.7in /  1006.1hPa Calm     96% 0.01in /  0.2mm 0 W/m2
03:04 55.2 °F /  12.9 °C 54.1 °F /  12.3 °C 29.7in /  1006.1hPa Calm   1mph /  1.6km/h 96% 0.01in /  0.2mm 0 W/m2
03:09 55.2 °F /  12.9 °C 54.1 °F /  12.3 °C 29.7in /  1006.1hPa Calm     96% 0.01in /  0.2mm 0 W/m2
03:14 55.2 °F /  12.9 °C 54.1 °F /  12.3 °C 29.7in /  1006.1hPa Calm   1mph /  1.6km/h 96% 0.01in /  0.2mm 0 W/m2
03:19 55.2 °F /  12.9 °C 54.1 °F /  12.3 °C 29.7in /  1006.1hPa Calm     96% 0.01in /  0.2mm 0 W/m2
03:24 55.2 °F /  12.9 °C 54.1 °F /  12.3 °C 29.7in /  1006.1hPa Calm     96% 0.01in /  0.2mm 0 W/m2
03:29 55.2 °F /  12.9 °C 54.1 °F /  12.3 °C 29.7in /  1005.8hPa Calm     96% 0.01in /  0.2mm 0 W/m2
03:34 55.2 °F /  12.9 °C 54.1 °F /  12.3 °C 29.7in /  1005.8hPa Calm     96% 0.01in /  0.2mm 0 W/m2
03:39 55.2 °F /  12.9 °C 54.1 °F /  12.3 °C 29.7in /  1005.8hPa Calm     96% 0.01in /  0.2mm 0 W/m2
03:44 55.2 °F /  12.9 °C 54.1 °F /  12.3 °C 29.7in /  1005.8hPa Calm     96% 0.01in /  0.2mm 0 W/m2
03:49 55 °F /  12.8 °C 54 °F /  12.2 °C 29.7in /  1005.8hPa Calm     96% 0.01in /  0.2mm 0 W/m2
03:54 55 °F /  12.8 °C 54 °F /  12.2 °C 29.7in /  1005.8hPa Calm     96% 0.01in /  0.2mm 0 W/m2
03:59 55 °F /  12.8 °C 54 °F /  12.2 °C 29.7in /  1005.8hPa Calm     96% 0in /  0.0mm 0 W/m2
04:04 55 °F /  12.8 °C 54 °F /  12.2 °C 29.7in /  1005.8hPa Calm     96% 0in /  0.0mm 0 W/m2
04:09 55 °F /  12.8 °C 54 °F /  12.2 °C 29.7in /  1005.8hPa Calm     96% 0in /  0.0mm 0 W/m2
04:14 55 °F /  12.8 °C 54 °F /  12.2 °C 29.7in /  1005.8hPa Calm     96% 0in /  0.0mm 0 W/m2
04:19 55 °F /  12.8 °C 54 °F /  12.2 °C 29.7in /  1005.8hPa Calm     96% 0in /  0.0mm 0 W/m2
04:25 55 °F /  12.8 °C 54 °F /  12.2 °C 29.7in /  1005.8hPa Calm     96% 0in /  0.0mm 0 W/m2
04:30 55 °F /  12.8 °C 54 °F /  12.2 °C 29.7in /  1005.8hPa Calm     96% 0in /  0.0mm 0 W/m2
04:35 55.2 °F /  12.9 °C 54.3 °F /  12.4 °C 29.7in /  1005.8hPa Calm     97% 0in /  0.0mm 0 W/m2
04:40 55.2 °F /  12.9 °C 54.1 °F /  12.3 °C 29.7in /  1005.8hPa Calm     96% 0in /  0.0mm 0 W/m2
04:45 55.2 °F /  12.9 °C 54.1 °F /  12.3 °C 29.7in /  1005.8hPa Calm     96% 0in /  0.0mm 0 W/m2
04:50 55.2 °F /  12.9 °C 54.1 °F /  12.3 °C 29.7in /  1005.4hPa Calm     96% 0in /  0.0mm 0 W/m2
04:55 55 °F /  12.8 °C 54.1 °F /  12.3 °C 29.7in /  1005.4hPa Calm     97% 0in /  0.0mm 0 W/m2
05:00 55.2 °F /  12.9 °C 54.1 °F /  12.3 °C 29.7in /  1005.8hPa Calm     96% 0in /  0.0mm 0 W/m2
05:05 55 °F /  12.8 °C 54.1 °F /  12.3 °C 29.7in /  1005.8hPa Calm     97% 0in /  0.0mm 0 W/m2
05:10 55 °F /  12.8 °C 54.1 °F /  12.3 °C 29.7in /  1005.4hPa Calm     97% 0in /  0.0mm 0 W/m2
05:15 55 °F /  12.8 °C 54.1 °F /  12.3 °C 29.7in /  1005.4hPa Calm     97% 0in /  0.0mm 0 W/m2
05:20 55 °F /  12.8 °C 54.1 °F /  12.3 °C 29.7in /  1005.8hPa Calm     97% 0.01in /  0.2mm 0 W/m2
05:25 55 °F /  12.8 °C 54.1 °F /  12.3 °C 29.7in /  1005.4hPa Calm     97% 0.01in /  0.2mm 0 W/m2
05:30 55 °F /  12.8 °C 54.1 °F /  12.3 °C 29.7in /  1005.4hPa Calm     97% 0.02in /  0.5mm 0 W/m2
05:35 54.9 °F /  12.7 °C 54 °F /  12.2 °C 29.7in /  1005.8hPa Calm     97% 0.02in /  0.5mm 0 W/m2
05:40 54.9 °F /  12.7 °C 54 °F /  12.2 °C 29.7in /  1005.8hPa Calm     97% 0.03in /  0.8mm 0 W/m2
05:45 54.9 °F /  12.7 °C 54 °F /  12.2 °C 29.7in /  1005.4hPa Calm     97% 0.05in /  1.3mm 0 W/m2
05:50 54.9 °F /  12.7 °C 54 °F /  12.2 °C 29.7in /  1005.1hPa Calm     97% 0.06in /  1.5mm 0 W/m2
05:55 54.9 °F /  12.7 °C 54 °F /  12.2 °C 29.7in /  1005.1hPa Calm     97% 0.06in /  1.5mm 0 W/m2
06:00 54.9 °F /  12.7 °C 54 °F /  12.2 °C 29.7in /  1005.1hPa SW 0.9mph /  1.4km/h 2mph /  3.2km/h 97% 0.07in /  1.8mm 0 W/m2
06:05 54.9 °F /  12.7 °C 54 °F /  12.2 °C 29.7in /  1005.1hPa Calm     97% 0.09in /  2.3mm 0 W/m2
06:10 54.9 °F /  12.7 °C 54 °F /  12.2 °C 29.7in /  1005.1hPa Calm   1mph /  1.6km/h 97% 0.09in /  2.3mm 0 W/m2
06:15 54.9 °F /  12.7 °C 54 °F /  12.2 °C 29.7in /  1005.1hPa Calm     97% 0.09in /  2.3mm 0 W/m2
06:20 54.9 °F /  12.7 °C 54 °F /  12.2 °C 29.7in /  1005.1hPa SW 2mph /  3.2km/h 2mph /  3.2km/h 97% 0.09in /  2.3mm 0 W/m2
06:25 55 °F /  12.8 °C 54.1 °F /  12.3 °C 29.7in /  1005.1hPa Calm     97% 0.09in /  2.3mm 0 W/m2
06:30 55 °F /  12.8 °C 54.1 °F /  12.3 °C 29.7in /  1005.1hPa Calm   2mph /  3.2km/h 97% 0.09in /  2.3mm 0 W/m2
06:35 54.9 °F /  12.7 °C 54 °F /  12.2 °C 29.7in /  1005.1hPa Calm     97% 0.08in /  2.0mm 0 W/m2
06:40 54.9 °F /  12.7 °C 54 °F /  12.2 °C 29.7in /  1005.1hPa Calm     97% 0.07in /  1.8mm 0 W/m2
06:45 54.9 °F /  12.7 °C 54 °F /  12.2 °C 29.7in /  1005.1hPa SW 0.9mph /  1.4km/h 2mph /  3.2km/h 97% 0.06in /  1.5mm 0 W/m2
06:50 54.9 °F /  12.7 °C 54 °F /  12.2 °C 29.7in /  1005.1hPa Calm     97% 0.05in /  1.3mm 0 W/m2
06:55 54.9 °F /  12.7 °C 54 °F /  12.2 °C 29.7in /  1005.1hPa Calm     97% 0.04in /  1.0mm 0 W/m2
07:00 54.9 °F /  12.7 °C 54 °F /  12.2 °C 29.7in /  1005.1hPa Calm     97% 0.03in /  0.8mm 5 W/m2
07:05 54.9 °F /  12.7 °C 54 °F /  12.2 °C 29.7in /  1005.1hPa Calm     97% 0.02in /  0.5mm 11 W/m2
07:10 54.9 °F /  12.7 °C 54 °F /  12.2 °C 29.7in /  1005.1hPa Calm     97% 0.02in /  0.5mm 18 W/m2
07:15 54.9 °F /  12.7 °C 54 °F /  12.2 °C 29.7in /  1005.1hPa Calm     97% 0.01in /  0.2mm 26 W/m2
07:20 54.9 °F /  12.7 °C 54 °F /  12.2 °C 29.7in /  1005.1hPa Calm     97% 0in /  0.0mm 32 W/m2
07:25 54.9 °F /  12.7 °C 54 °F /  12.2 °C 29.7in /  1005.1hPa Calm     97% 0in /  0.0mm 51 W/m2
07:30 55 °F /  12.8 °C 54.1 °F /  12.3 °C 29.7in /  1005.1hPa Calm     97% 0in /  0.0mm 60 W/m2
07:35 55 °F /  12.8 °C 54.1 °F /  12.3 °C 29.7in /  1005.1hPa Calm     97% 0in /  0.0mm 69 W/m2
07:40 55 °F /  12.8 °C 54.1 °F /  12.3 °C 29.7in /  1005.4hPa Calm     97% 0in /  0.0mm 84 W/m2
07:45 55.4 °F /  13 °C 54.5 °F /  12.5 °C 29.7in /  1005.4hPa SW 0.9mph /  1.4km/h 2mph /  3.2km/h 97% 0in /  0.0mm 158 W/m2
07:50 55.6 °F /  13.1 °C 54.7 °F /  12.6 °C 29.7in /  1005.4hPa Calm   1mph /  1.6km/h 97% 0in /  0.0mm 120 W/m2
07:55 55.8 °F /  13.2 °C 54.9 °F /  12.7 °C 29.7in /  1005.4hPa Calm   1mph /  1.6km/h 97% 0.01in /  0.2mm 84 W/m2
08:00 55.8 °F /  13.2 °C 54.9 °F /  12.7 °C 29.7in /  1005.4hPa East 0.9mph /  1.4km/h 2mph /  3.2km/h 97% 0.01in /  0.2mm 93 W/m2
08:05 55.8 °F /  13.2 °C 54.9 °F /  12.7 °C 29.7in /  1005.4hPa Calm   2mph /  3.2km/h 97% 0.01in /  0.2mm 111 W/m2
08:10 55.9 °F /  13.3 °C 55 °F /  12.8 °C 29.7in /  1005.1hPa Calm   2mph /  3.2km/h 97% 0.01in /  0.2mm 128 W/m2
08:15 55.9 °F /  13.3 °C 55 °F /  12.8 °C 29.7in /  1005.1hPa NE 0.9mph /  1.4km/h 3mph /  4.8km/h 97% 0.01in /  0.2mm 114 W/m2
08:20 56.1 °F /  13.4 °C 55.2 °F /  12.9 °C 29.7in /  1005.1hPa Calm     97% 0.01in /  0.2mm 137 W/m2
08:26 56.1 °F /  13.4 °C 55.2 °F /  12.9 °C 29.7in /  1005.1hPa Calm   3mph /  4.8km/h 97% 0.01in /  0.2mm 202 W/m2
08:31 56.5 °F /  13.6 °C 55.6 °F /  13.1 °C 29.7in /  1005.1hPa Calm     97% 0.01in /  0.2mm 411 W/m2
08:36 56.8 °F /  13.8 °C 55.9 °F /  13.3 °C 29.7in /  1005.1hPa NNE 2mph /  3.2km/h 3mph /  4.8km/h 97% 0.01in /  0.2mm 174 W/m2
08:41 56.7 °F /  13.7 °C 55.8 °F /  13.2 °C 29.7in /  1005.1hPa East 0.9mph /  1.4km/h 2mph /  3.2km/h 97% 0.01in /  0.2mm 188 W/m2
08:46 56.8 °F /  13.8 °C 55.9 °F /  13.3 °C 29.7in /  1005.4hPa Calm   1mph /  1.6km/h 97% 0.01in /  0.2mm 192 W/m2
08:51 57 °F /  13.9 °C 56.1 °F /  13.4 °C 29.7in /  1005.1hPa ESE 0.9mph /  1.4km/h 4mph /  6.4km/h 97% 0.01in /  0.2mm 176 W/m2
08:56 57.2 °F /  14 °C 56.3 °F /  13.5 °C 29.7in /  1005.1hPa ESE 0.9mph /  1.4km/h 2mph /  3.2km/h 97% 0in /  0.0mm 153 W/m2
09:01 57.6 °F /  14.2 °C 56.7 °F /  13.7 °C 29.7in /  1005.1hPa Calm   4mph /  6.4km/h 97% 0in /  0.0mm 144 W/m2
09:06 57.4 °F /  14.1 °C 56.3 °F /  13.5 °C 29.7in /  1005.1hPa Calm     96% 0in /  0.0mm 160 W/m2
09:11 57.6 °F /  14.2 °C 56.5 °F /  13.6 °C 29.7in /  1005.1hPa NE 0.9mph /  1.4km/h 3mph /  4.8km/h 96% 0in /  0.0mm 158 W/m2
09:16 57.6 °F /  14.2 °C 56.5 °F /  13.6 °C 29.7in /  1005.1hPa Calm     96% 0in /  0.0mm 139 W/m2
09:21 57.6 °F /  14.2 °C 56.1 °F /  13.4 °C 29.7in /  1005.1hPa Calm   3mph /  4.8km/h 95% 0in /  0.0mm 118 W/m2
09:26 57.7 °F /  14.3 °C 56.3 °F /  13.5 °C 29.7in /  1005.1hPa East 2mph /  3.2km/h 2mph /  3.2km/h 95% 0in /  0.0mm 105 W/m2
09:31 57.7 °F /  14.3 °C 56.3 °F /  13.5 °C 29.7in /  1005.1hPa Calm     95% 0in /  0.0mm 69 W/m2
09:36 57.9 °F /  14.4 °C 56.5 °F /  13.6 °C 29.7in /  1005.1hPa Calm     95% 0in /  0.0mm 83 W/m2
09:42 58.3 °F /  14.6 °C 56.8 °F /  13.8 °C 29.7in /  1005.1hPa Calm   2mph /  3.2km/h 95% 0in /  0.0mm 512 W/m2
09:47 58.8 °F /  14.9 °C 57.4 °F /  14.1 °C 29.7in /  1005.1hPa ESE 2mph /  3.2km/h 3mph /  4.8km/h 95% 0in /  0.0mm 652 W/m2
09:52 59.7 °F /  15.4 °C 58.3 °F /  14.6 °C 29.7in /  1005.1hPa ESE 2mph /  3.2km/h 3mph /  4.8km/h 95% 0in /  0.0mm 482 W/m2
09:57 60.4 °F /  15.8 °C 58.5 °F /  14.7 °C 29.7in /  1005.1hPa ENE 0.9mph /  1.4km/h 3mph /  4.8km/h 93% 0in /  0.0mm 330 W/m2
10:02 60.6 °F /  15.9 °C 58.3 °F /  14.6 °C 29.7in /  1005.1hPa East 2mph /  3.2km/h 2mph /  3.2km/h 92% 0in /  0.0mm 236 W/m2
10:07 60.8 °F /  16 °C 58.5 °F /  14.7 °C 29.7in /  1005.1hPa SE 0.9mph /  1.4km/h 3mph /  4.8km/h 92% 0in /  0.0mm 209 W/m2
10:12 61 °F /  16.1 °C 58.6 °F /  14.8 °C 29.7in /  1005.1hPa Calm   1mph /  1.6km/h 92% 0in /  0.0mm 199 W/m2
10:17 61 °F /  16.1 °C 58.3 °F /  14.6 °C 29.7in /  1004.7hPa Calm   1mph /  1.6km/h 91% 0in /  0.0mm 199 W/m2
10:22 61 °F /  16.1 °C 58.6 °F /  14.8 °C 29.7in /  1004.7hPa ESE 0.9mph /  1.4km/h 2mph /  3.2km/h 92% 0in /  0.0mm 209 W/m2
10:27 61.2 °F /  16.2 °C 58.8 °F /  14.9 °C 29.7in /  1004.7hPa East 0.9mph /  1.4km/h 1mph /  1.6km/h 92% 0in /  0.0mm 223 W/m2
10:32 61.3 °F /  16.3 °C 59 °F /  15 °C 29.7in /  1005.1hPa Calm   1mph /  1.6km/h 92% 0in /  0.0mm 216 W/m2
10:37 61.3 °F /  16.3 °C 58.6 °F /  14.8 °C 29.7in /  1005.1hPa Calm   2mph /  3.2km/h 91% 0in /  0.0mm 223 W/m2
10:42 61.5 °F /  16.4 °C 58.8 °F /  14.9 °C 29.7in /  1005.1hPa East 2mph /  3.2km/h 4mph /  6.4km/h 91% 0in /  0.0mm 309 W/m2
10:47 61.9 °F /  16.6 °C 59.2 °F /  15.1 °C 29.7in /  1004.7hPa Calm   3mph /  4.8km/h 91% 0in /  0.0mm 780 W/m2
10:52 62.6 °F /  17 °C 59.4 °F /  15.2 °C 29.7in /  1004.7hPa East 4.9mph /  7.9km/h 5mph /  8km/h 89% 0in /  0.0mm 589 W/m2
10:57 63.1 °F /  17.3 °C 59.9 °F /  15.5 °C 29.7in /  1004.7hPa Calm   2mph /  3.2km/h 89% 0in /  0.0mm 657 W/m2
11:02 63.5 °F /  17.5 °C 60.3 °F /  15.7 °C 29.7in /  1004.7hPa Calm   1mph /  1.6km/h 89% 0in /  0.0mm 427 W/m2
11:08 63.9 °F /  17.7 °C 60.6 °F /  15.9 °C 29.7in /  1004.7hPa Calm   1mph /  1.6km/h 89% 0in /  0.0mm 353 W/m2
11:13 64.2 °F /  17.9 °C 60.6 °F /  15.9 °C 29.7in /  1004.7hPa Calm     88% 0in /  0.0mm 394 W/m2
11:18 64.6 °F /  18.1 °C 60.6 °F /  15.9 °C 29.7in /  1004.7hPa East 2mph /  3.2km/h 3mph /  4.8km/h 87% 0in /  0.0mm 531 W/m2
11:23 64.8 °F /  18.2 °C 60.4 °F /  15.8 °C 29.7in /  1004.7hPa ESE 0.9mph /  1.4km/h 4mph /  6.4km/h 86% 0in /  0.0mm 366 W/m2
11:28 65.1 °F /  18.4 °C 61.5 °F /  16.4 °C 29.7in /  1004.4hPa Calm   3mph /  4.8km/h 88% 0in /  0.0mm 628 W/m2
11:33 65.5 °F /  18.6 °C 61.2 °F /  16.2 °C 29.7in /  1004.4hPa Calm   1mph /  1.6km/h 86% 0in /  0.0mm 487 W/m2
11:38 65.8 °F /  18.8 °C 61.2 °F /  16.2 °C 29.7in /  1004.4hPa Calm   3mph /  4.8km/h 85% 0in /  0.0mm 362 W/m2
11:43 66.4 °F /  19.1 °C 61.7 °F /  16.5 °C 29.7in /  1004.4hPa Calm   1mph /  1.6km/h 85% 0in /  0.0mm 510 W/m2
11:48 66.7 °F /  19.3 °C 62.1 °F /  16.7 °C 29.7in /  1004.7hPa NW 2mph /  3.2km/h 2mph /  3.2km/h 85% 0in /  0.0mm 482 W/m2
11:53 66.9 °F /  19.4 °C 61.9 °F /  16.6 °C 29.7in /  1004.4hPa WNW 2mph /  3.2km/h 3mph /  4.8km/h 84% 0in /  0.0mm 649 W/m2
11:58 67.3 °F /  19.6 °C 61.9 °F /  16.6 °C 29.7in /  1004.7hPa Calm   2mph /  3.2km/h 83% 0in /  0.0mm 459 W/m2
12:03 68 °F /  20 °C 62.6 °F /  17 °C 29.7in /  1004.4hPa SE 0.9mph /  1.4km/h 4mph /  6.4km/h 83% 0in /  0.0mm 659 W/m2
12:08 68.9 °F /  20.5 °C 63.5 °F /  17.5 °C 29.7in /  1004.4hPa NE 2.9mph /  4.7km/h 4mph /  6.4km/h 83% 0in /  0.0mm 1146 W/m2
12:13 69.3 °F /  20.7 °C 62.8 °F /  17.1 °C 29.7in /  1004.4hPa SE 0.9mph /  1.4km/h 4mph /  6.4km/h 80% 0in /  0.0mm 436 W/m2
12:18 69.3 °F /  20.7 °C 62.8 °F /  17.1 °C 29.7in /  1004.4hPa ENE 0.9mph /  1.4km/h 3mph /  4.8km/h 80% 0in /  0.0mm 387 W/m2
12:23 69.3 °F /  20.7 °C 62.4 °F /  16.9 °C 29.7in /  1004.4hPa WNW 0.9mph /  1.4km/h 6mph /  9.7km/h 79% 0in /  0.0mm 367 W/m2
12:28 69.3 °F /  20.7 °C 62.1 °F /  16.7 °C 29.7in /  1004.4hPa SE 2mph /  3.2km/h 5mph /  8km/h 78% 0in /  0.0mm 476 W/m2
12:33 69.3 °F /  20.7 °C 61.7 °F /  16.5 °C 29.7in /  1004.4hPa NW 2mph /  3.2km/h 4mph /  6.4km/h 77% 0in /  0.0mm 424 W/m2
12:38 69.3 °F /  20.7 °C 62.1 °F /  16.7 °C 29.7in /  1004.4hPa NNW 2mph /  3.2km/h 3mph /  4.8km/h 78% 0in /  0.0mm 469 W/m2
12:43 69.3 °F /  20.7 °C 62.1 °F /  16.7 °C 29.7in /  1004.4hPa NE 0.9mph /  1.4km/h 3mph /  4.8km/h 78% 0in /  0.0mm 466 W/m2
12:48 69.4 °F /  20.8 °C 62.6 °F /  17 °C 29.7in /  1004.4hPa Calm   1mph /  1.6km/h 79% 0in /  0.0mm 698 W/m2
12:53 69.8 °F /  21 °C 63 °F /  17.2 °C 29.7in /  1004.4hPa Calm   3mph /  4.8km/h 79% 0in /  0.0mm 320 W/m2
12:58 70 °F /  21.1 °C 62.8 °F /  17.1 °C 29.7in /  1004.4hPa WNW 2.9mph /  4.7km/h 4mph /  6.4km/h 78% 0in /  0.0mm 478 W/m2
13:03 69.4 °F /  20.8 °C 61.5 °F /  16.4 °C 29.7in /  1004.4hPa NNW 0.9mph /  1.4km/h 2mph /  3.2km/h 76% 0in /  0.0mm 325 W/m2
13:08 69.6 °F /  20.9 °C 62.1 °F /  16.7 °C 29.7in /  1004.1hPa North 2mph /  3.2km/h 2mph /  3.2km/h 77% 0in /  0.0mm 316 W/m2
13:13 70 °F /  21.1 °C 62.1 °F /  16.7 °C 29.7in /  1004.1hPa NW 0.9mph /  1.4km/h 3mph /  4.8km/h 76% 0in /  0.0mm 882 W/m2
13:18 70.5 °F /  21.4 °C 63 °F /  17.2 °C 29.7in /  1004.1hPa SE 0.9mph /  1.4km/h 3mph /  4.8km/h 77% 0in /  0.0mm 919 W/m2
13:23 70.9 °F /  21.6 °C 63 °F /  17.2 °C 29.7in /  1004.1hPa NNE 4mph /  6.4km/h 6mph /  9.7km/h 76% 0in /  0.0mm 322 W/m2
13:28 71.1 °F /  21.7 °C 62.4 °F /  16.9 °C 29.7in /  1004.1hPa East 8.1mph /  13km/h 8mph /  12.9km/h 74% 0in /  0.0mm 965 W/m2
13:33 71.1 °F /  21.7 °C 61.5 °F /  16.4 °C 29.7in /  1004.1hPa West 2mph /  3.2km/h 3mph /  4.8km/h 72% 0in /  0.0mm 330 W/m2
13:38 71.2 °F /  21.8 °C 61.7 °F /  16.5 °C 29.7in /  1004.1hPa NW 2mph /  3.2km/h 3mph /  4.8km/h 72% 0in /  0.0mm 330 W/m2
13:43 71.4 °F /  21.9 °C 62.2 °F /  16.8 °C 29.7in /  1004.1hPa WSW 2.9mph /  4.7km/h 9mph /  14.5km/h 73% 0in /  0.0mm 990 W/m2
13:48 71.4 °F /  21.9 °C 61.9 °F /  16.6 °C 29.7in /  1004.1hPa East 4.9mph /  7.9km/h 8mph /  12.9km/h 72% 0in /  0.0mm 619 W/m2
13:53 71.2 °F /  21.8 °C 61.7 °F /  16.5 °C 29.7in /  1004.1hPa NNW 2mph /  3.2km/h 4mph /  6.4km/h 72% 0in /  0.0mm 378 W/m2
13:58 71.4 °F /  21.9 °C 61.9 °F /  16.6 °C 29.6in /  1003.7hPa NW 2.9mph /  4.7km/h 4mph /  6.4km/h 72% 0in /  0.0mm 958 W/m2
14:03 71.8 °F /  22.1 °C 61 °F /  16.1 °C 29.6in /  1003.7hPa West 2mph /  3.2km/h 8mph /  12.9km/h 69% 0in /  0.0mm 858 W/m2
14:08 72.3 °F /  22.4 °C 61.5 °F /  16.4 °C 29.6in /  1003.7hPa WNW 2mph /  3.2km/h 13mph /  20.9km/h 69% 0in /  0.0mm 868 W/m2
14:13 72.7 °F /  22.6 °C 62.2 °F /  16.8 °C 29.6in /  1003.4hPa West 8.1mph /  13km/h 9mph /  14.5km/h 70% 0in /  0.0mm 881 W/m2
14:19 72.7 °F /  22.6 °C 61.2 °F /  16.2 °C 29.6in /  1003.7hPa WNW 2mph /  3.2km/h 13mph /  20.9km/h 67% 0in /  0.0mm 309 W/m2
14:24 72.7 °F /  22.6 °C 61.5 °F /  16.4 °C 29.6in /  1003.7hPa WNW 4mph /  6.4km/h 9mph /  14.5km/h 68% 0in /  0.0mm 761 W/m2
14:29 72.5 °F /  22.5 °C 61.3 °F /  16.3 °C 29.6in /  1003.4hPa West 8.1mph /  13km/h 8mph /  12.9km/h 68% 0in /  0.0mm 761 W/m2
14:34 72.7 °F /  22.6 °C 61.2 °F /  16.2 °C 29.6in /  1003.4hPa South 2mph /  3.2km/h 9mph /  14.5km/h 67% 0in /  0.0mm 898 W/m2
14:39 72.7 °F /  22.6 °C 60.6 °F /  15.9 °C 29.6in /  1003.4hPa West 2mph /  3.2km/h 4mph /  6.4km/h 66% 0in /  0.0mm 404 W/m2
14:44 72.7 °F /  22.6 °C 61.2 °F /  16.2 °C 29.6in /  1003.4hPa WNW 4mph /  6.4km/h 8mph /  12.9km/h 67% 0in /  0.0mm 900 W/m2
14:49 72.7 °F /  22.6 °C 61.5 °F /  16.4 °C 29.6in /  1003.4hPa West 6.9mph /  11.1km/h 9mph /  14.5km/h 68% 0in /  0.0mm 211 W/m2
14:54 72.1 °F /  22.3 °C 61.3 °F /  16.3 °C 29.6in /  1003.4hPa West 4mph /  6.4km/h 11mph /  17.7km/h 69% 0in /  0.0mm 269 W/m2
14:59 71.4 °F /  21.9 °C 60.8 °F /  16 °C 29.6in /  1003.4hPa WNW 6.9mph /  11.1km/h 16mph /  25.7km/h 69% 0in /  0.0mm 394 W/m2
15:04 70.2 °F /  21.2 °C 60.3 °F /  15.7 °C 29.6in /  1003.7hPa WNW 8.1mph /  13km/h 10mph /  16.1km/h 71% 0in /  0.0mm 211 W/m2
15:09 69.1 °F /  20.6 °C 59.7 °F /  15.4 °C 29.6in /  1003.4hPa West 4mph /  6.4km/h 16mph /  25.7km/h 72% 0in /  0.0mm 199 W/m2
15:14 68.5 °F /  20.3 °C 59.9 °F /  15.5 °C 29.6in /  1003.7hPa West 2mph /  3.2km/h 4mph /  6.4km/h 74% 0in /  0.0mm 193 W/m2
15:19 68.2 °F /  20.1 °C 59.9 °F /  15.5 °C 29.6in /  1003.7hPa WNW 4mph /  6.4km/h 8mph /  12.9km/h 75% 0in /  0.0mm 204 W/m2
15:24 67.3 °F /  19.6 °C 59.5 °F /  15.3 °C 29.6in /  1003.7hPa WSW 6.9mph /  11.1km/h 8mph /  12.9km/h 76% 0in /  0.0mm 186 W/m2
15:29 66.7 °F /  19.3 °C 60.1 °F /  15.6 °C 29.6in /  1003.7hPa WNW 4mph /  6.4km/h 7mph /  11.3km/h 79% 0in /  0.0mm 183 W/m2
15:34 66.6 °F /  19.2 °C 60.3 °F /  15.7 °C 29.6in /  1003.4hPa WNW 2.9mph /  4.7km/h 8mph /  12.9km/h 80% 0.01in /  0.2mm 320 W/m2
15:39 66.4 °F /  19.1 °C 60.8 °F /  16 °C 29.6in /  1003.4hPa NW 2mph /  3.2km/h 7mph /  11.3km/h 82% 0.01in /  0.2mm 301 W/m2
15:44 66.4 °F /  19.1 °C 60.4 °F /  15.8 °C 29.6in /  1003.4hPa WSW 2.9mph /  4.7km/h 7mph /  11.3km/h 81% 0.01in /  0.2mm 376 W/m2
15:49 66.6 °F /  19.2 °C 60.3 °F /  15.7 °C 29.6in /  1003.4hPa WNW 4mph /  6.4km/h 7mph /  11.3km/h 80% 0.01in /  0.2mm 390 W/m2
15:54 66.9 °F /  19.4 °C 60.6 °F /  15.9 °C 29.6in /  1003.4hPa WNW 4mph /  6.4km/h 7mph /  11.3km/h 80% 0.01in /  0.2mm 388 W/m2
15:59 67.6 °F /  19.8 °C 59.7 °F /  15.4 °C 29.6in /  1003.4hPa WNW 4mph /  6.4km/h 8mph /  12.9km/h 76% 0.01in /  0.2mm 380 W/m2
16:04 68.2 °F /  20.1 °C 58.5 °F /  14.7 °C 29.6in /  1003.4hPa WSW 4.9mph /  7.9km/h 6mph /  9.7km/h 71% 0.01in /  0.2mm 383 W/m2
16:09 68.5 °F /  20.3 °C 59.2 °F /  15.1 °C 29.6in /  1003.0hPa NNW 2.9mph /  4.7km/h 5mph /  8km/h 72% 0.01in /  0.2mm 380 W/m2
16:14 68.9 °F /  20.5 °C 59.5 °F /  15.3 °C 29.6in /  1003.0hPa NW 2mph /  3.2km/h 7mph /  11.3km/h 72% 0.01in /  0.2mm 396 W/m2
16:19 69.3 °F /  20.7 °C 60.3 °F /  15.7 °C 29.6in /  1003.0hPa NW 2mph /  3.2km/h 4mph /  6.4km/h 73% 0.01in /  0.2mm 373 W/m2
16:24 69.3 °F /  20.7 °C 59.9 °F /  15.5 °C 29.6in /  1003.0hPa NW 2.9mph /  4.7km/h 6mph /  9.7km/h 72% 0.01in /  0.2mm 353 W/m2
16:29 69.4 °F /  20.8 °C 60.8 °F /  16 °C 29.6in /  1003.0hPa West 2.9mph /  4.7km/h 4mph /  6.4km/h 74% 0.01in /  0.2mm 394 W/m2
16:34 69.6 °F /  20.9 °C 61 °F /  16.1 °C 29.6in /  1003.0hPa West 0.9mph /  1.4km/h 4mph /  6.4km/h 74% 0in /  0.0mm 424 W/m2
16:39 70.2 °F /  21.2 °C 60.6 °F /  15.9 °C 29.6in /  1003.0hPa West 2.9mph /  4.7km/h 5mph /  8km/h 72% 0in /  0.0mm 401 W/m2
16:44 70.3 °F /  21.3 °C 60.8 °F /  16 °C 29.6in /  1003.0hPa WNW 2.9mph /  4.7km/h 4mph /  6.4km/h 72% 0in /  0.0mm 418 W/m2
16:49 70.3 °F /  21.3 °C 60.8 °F /  16 °C 29.6in /  1002.7hPa WNW 2mph /  3.2km/h 10mph /  16.1km/h 72% 0in /  0.0mm 448 W/m2
16:54 70.7 °F /  21.5 °C 60.8 °F /  16 °C 29.6in /  1002.7hPa NW 8.9mph /  14.3km/h 9mph /  14.5km/h 71% 0in /  0.0mm 573 W/m2
16:59 71.2 °F /  21.8 °C 60.6 °F /  15.9 °C 29.6in /  1002.7hPa WNW 4mph /  6.4km/h 10mph /  16.1km/h 69% 0in /  0.0mm 559 W/m2
17:04 71.4 °F /  21.9 °C 59.9 °F /  15.5 °C 29.6in /  1002.7hPa WNW 2mph /  3.2km/h 7mph /  11.3km/h 67% 0in /  0.0mm 494 W/m2
17:10 71.8 °F /  22.1 °C 60.3 °F /  15.7 °C 29.6in /  1002.7hPa West 2mph /  3.2km/h 9mph /  14.5km/h 67% 0in /  0.0mm 482 W/m2
17:15 71.8 °F /  22.1 °C 60.6 °F /  15.9 °C 29.6in /  1002.7hPa NW 8.1mph /  13km/h 8mph /  12.9km/h 68% 0in /  0.0mm 439 W/m2
17:20 71.8 °F /  22.1 °C 61.5 °F /  16.4 °C 29.6in /  1002.7hPa SW 2.9mph /  4.7km/h 6mph /  9.7km/h 70% 0in /  0.0mm 457 W/m2
17:25 71.4 °F /  21.9 °C 60.3 °F /  15.7 °C 29.6in /  1002.7hPa West 8.1mph /  13km/h 8mph /  12.9km/h 68% 0in /  0.0mm 468 W/m2
17:30 71.2 °F /  21.8 °C 61 °F /  16.1 °C 29.6in /  1002.7hPa WNW 2.9mph /  4.7km/h 6mph /  9.7km/h 70% 0in /  0.0mm 497 W/m2
17:35 71.8 °F /  22.1 °C 61.5 °F /  16.4 °C 29.6in /  1002.7hPa North 2mph /  3.2km/h 3mph /  4.8km/h 70% 0in /  0.0mm 475 W/m2
17:40 72.1 °F /  22.3 °C 61.3 °F /  16.3 °C 29.6in /  1002.7hPa WSW 4.9mph /  7.9km/h 5mph /  8km/h 69% 0in /  0.0mm 471 W/m2
17:45 72.1 °F /  22.3 °C 61.9 °F /  16.6 °C 29.6in /  1002.4hPa West 2mph /  3.2km/h 4mph /  6.4km/h 70% 0in /  0.0mm 452 W/m2
17:50 72.3 °F /  22.4 °C 61.5 °F /  16.4 °C 29.6in /  1002.4hPa NNW 4mph /  6.4km/h 6mph /  9.7km/h 69% 0in /  0.0mm 418 W/m2
17:55 72.5 °F /  22.5 °C 61.7 °F /  16.5 °C 29.6in /  1002.4hPa North 2mph /  3.2km/h 7mph /  11.3km/h 69% 0in /  0.0mm 364 W/m2
18:00 72.1 °F /  22.3 °C 61.3 °F /  16.3 °C 29.6in /  1002.0hPa WNW 4mph /  6.4km/h 4mph /  6.4km/h 69% 0in /  0.0mm 309 W/m2
18:06 72 °F /  22.2 °C 60.8 °F /  16 °C 29.6in /  1002.0hPa NW 2mph /  3.2km/h 6mph /  9.7km/h 68% 0in /  0.0mm 281 W/m2
18:11 71.8 °F /  22.1 °C 61 °F /  16.1 °C 29.6in /  1002.0hPa West 2mph /  3.2km/h 3mph /  4.8km/h 69% 0in /  0.0mm 287 W/m2
18:16 71.8 °F /  22.1 °C 60.6 °F /  15.9 °C 29.6in /  1002.0hPa WSW 4mph /  6.4km/h 8mph /  12.9km/h 68% 0in /  0.0mm 308 W/m2
18:21 71.6 °F /  22 °C 60.4 °F /  15.8 °C 29.6in /  1002.0hPa WNW 2mph /  3.2km/h 3mph /  4.8km/h 68% 0in /  0.0mm 350 W/m2
18:26 72 °F /  22.2 °C 60.4 °F /  15.8 °C 29.6in /  1002.0hPa West 2.9mph /  4.7km/h 7mph /  11.3km/h 67% 0in /  0.0mm 353 W/m2
18:31 72 °F /  22.2 °C 60.8 °F /  16 °C 29.6in /  1002.0hPa SW 2mph /  3.2km/h 5mph /  8km/h 68% 0in /  0.0mm 316 W/m2
18:36 72 °F /  22.2 °C 61.2 °F /  16.2 °C 29.6in /  1002.0hPa WSW 4mph /  6.4km/h 4mph /  6.4km/h 69% 0in /  0.0mm 276 W/m2
18:41 72.1 °F /  22.3 °C 60.1 °F /  15.6 °C 29.6in /  1001.7hPa WNW 0.9mph /  1.4km/h 6mph /  9.7km/h 66% 0in /  0.0mm 329 W/m2
18:46 72.3 °F /  22.4 °C 60.8 °F /  16 °C 29.6in /  1001.7hPa NW 2mph /  3.2km/h 6mph /  9.7km/h 67% 0in /  0.0mm 285 W/m2
18:51 72.3 °F /  22.4 °C 60.3 °F /  15.7 °C 29.6in /  1001.7hPa ENE 2.9mph /  4.7km/h 4mph /  6.4km/h 66% 0in /  0.0mm 113 W/m2
18:56 72.1 °F /  22.3 °C 59.4 °F /  15.2 °C 29.6in /  1001.7hPa NNW 2.9mph /  4.7km/h 4mph /  6.4km/h 64% 0in /  0.0mm 86 W/m2
19:01 71.6 °F /  22 °C 59.2 °F /  15.1 °C 29.6in /  1001.7hPa NW 2mph /  3.2km/h 4mph /  6.4km/h 65% 0in /  0.0mm 76 W/m2
19:06 71.1 °F /  21.7 °C 59.2 °F /  15.1 °C 29.6in /  1001.7hPa WNW 0.9mph /  1.4km/h 2mph /  3.2km/h 66% 0in /  0.0mm 77 W/m2
19:11 70.7 °F /  21.5 °C 58.8 °F /  14.9 °C 29.6in /  1001.7hPa Calm   3mph /  4.8km/h 66% 0in /  0.0mm 76 W/m2
19:16 70.5 °F /  21.4 °C 59.4 °F /  15.2 °C 29.6in /  1001.7hPa North 2mph /  3.2km/h 3mph /  4.8km/h 68% 0in /  0.0mm 120 W/m2
19:21 70.5 °F /  21.4 °C 59 °F /  15 °C 29.6in /  1001.7hPa NW 0.9mph /  1.4km/h 2mph /  3.2km/h 67% 0in /  0.0mm 156 W/m2
19:26 70.9 °F /  21.6 °C 59.4 °F /  15.2 °C 29.6in /  1001.7hPa WNW 0.9mph /  1.4km/h 5mph /  8km/h 67% 0in /  0.0mm 128 W/m2
19:31 70.9 °F /  21.6 °C 60.3 °F /  15.7 °C 29.6in /  1001.7hPa WNW 0.9mph /  1.4km/h 3mph /  4.8km/h 69% 0in /  0.0mm 153 W/m2
19:36 70.7 °F /  21.5 °C 60.1 °F /  15.6 °C 29.6in /  1001.7hPa WNW 4mph /  6.4km/h 6mph /  9.7km/h 69% 0in /  0.0mm 141 W/m2
19:41 70.5 °F /  21.4 °C 60.3 °F /  15.7 °C 29.6in /  1001.7hPa WNW 2.9mph /  4.7km/h 4mph /  6.4km/h 70% 0in /  0.0mm 102 W/m2
19:47 70.2 °F /  21.2 °C 60.3 °F /  15.7 °C 29.6in /  1001.7hPa NW 2mph /  3.2km/h 3mph /  4.8km/h 71% 0in /  0.0mm 60 W/m2
19:52 69.8 °F /  21 °C 60.4 °F /  15.8 °C 29.6in /  1001.7hPa WNW 0.9mph /  1.4km/h 2mph /  3.2km/h 72% 0in /  0.0mm 42 W/m2
19:57 69.4 °F /  20.8 °C 60.4 °F /  15.8 °C 29.6in /  1001.7hPa NNW 2mph /  3.2km/h 3mph /  4.8km/h 73% 0in /  0.0mm 69 W/m2
20:02 69.4 °F /  20.8 °C 60.8 °F /  16 °C 29.6in /  1001.7hPa Calm   2mph /  3.2km/h 74% 0in /  0.0mm 81 W/m2
20:07 69.4 °F /  20.8 °C 60.8 °F /  16 °C 29.6in /  1001.7hPa NNW 0.9mph /  1.4km/h 3mph /  4.8km/h 74% 0in /  0.0mm 54 W/m2
20:12 69.3 °F /  20.7 °C 60.6 °F /  15.9 °C 29.6in /  1001.7hPa Calm   4mph /  6.4km/h 74% 0in /  0.0mm 58 W/m2
20:17 69.3 °F /  20.7 °C 61 °F /  16.1 °C 29.6in /  1001.7hPa WNW 2mph /  3.2km/h 2mph /  3.2km/h 75% 0in /  0.0mm 53 W/m2
20:22 68.9 °F /  20.5 °C 61 °F /  16.1 °C 29.6in /  1001.7hPa NNW 2mph /  3.2km/h 3mph /  4.8km/h 76% 0in /  0.0mm 47 W/m2
20:27 68.5 °F /  20.3 °C 61 °F /  16.1 °C 29.6in /  1002.0hPa NNW 2mph /  3.2km/h 3mph /  4.8km/h 77% 0in /  0.0mm 40 W/m2
20:32 68.4 °F /  20.2 °C 60.8 °F /  16 °C 29.6in /  1002.0hPa Calm   1mph /  1.6km/h 77% 0in /  0.0mm 35 W/m2
20:37 68.2 °F /  20.1 °C 61.3 °F /  16.3 °C 29.6in /  1002.0hPa Calm   3mph /  4.8km/h 79% 0in /  0.0mm 26 W/m2
20:42 67.8 °F /  19.9 °C 61.3 °F /  16.3 °C 29.6in /  1002.0hPa Calm     80% 0in /  0.0mm 14 W/m2
20:47 67.3 °F /  19.6 °C 61.2 °F /  16.2 °C 29.6in /  1002.0hPa Calm     81% 0in /  0.0mm 9 W/m2
20:52 66.7 °F /  19.3 °C 61 °F /  16.1 °C 29.6in /  1002.0hPa Calm     82% 0in /  0.0mm 7 W/m2
20:57 66.6 °F /  19.2 °C 61.2 °F /  16.2 °C 29.6in /  1002.0hPa Calm     83% 0in /  0.0mm 5 W/m2
21:02 66 °F /  18.9 °C 60.6 °F /  15.9 °C 29.6in /  1002.0hPa Calm     83% 0in /  0.0mm 0 W/m2
21:07 65.7 °F /  18.7 °C 60.6 °F /  15.9 °C 29.6in /  1002.0hPa Calm     84% 0in /  0.0mm 0 W/m2
21:12 65.5 °F /  18.6 °C 60.8 °F /  16 °C 29.6in /  1002.0hPa Calm     85% 0in /  0.0mm 0 W/m2
21:17 65.1 °F /  18.4 °C 60.4 °F /  15.8 °C 29.6in /  1002.0hPa Calm     85% 0in /  0.0mm 0 W/m2
21:22 64.9 °F /  18.3 °C 60.6 °F /  15.9 °C 29.6in /  1002.0hPa Calm     86% 0in /  0.0mm 0 W/m2
21:27 64.6 °F /  18.1 °C 60.3 °F /  15.7 °C 29.6in /  1002.0hPa Calm     86% 0in /  0.0mm 0 W/m2
21:32 64.4 °F /  18 °C 60.4 °F /  15.8 °C 29.6in /  1002.4hPa Calm     87% 0in /  0.0mm 0 W/m2
21:37 64.4 °F /  18 °C 60.4 °F /  15.8 °C 29.6in /  1002.4hPa Calm     87% 0in /  0.0mm 0 W/m2
21:43 64.2 °F /  17.9 °C 60.6 °F /  15.9 °C 29.6in /  1002.4hPa Calm     88% 0in /  0.0mm 0 W/m2
21:48 64.4 °F /  18 °C 60.8 °F /  16 °C 29.6in /  1002.4hPa WNW 0.9mph /  1.4km/h 2mph /  3.2km/h 88% 0in /  0.0mm 0 W/m2
21:53 64.6 °F /  18.1 °C 60.6 °F /  15.9 °C 29.6in /  1002.4hPa WNW 2mph /  3.2km/h 3mph /  4.8km/h 87% 0in /  0.0mm 0 W/m2
21:58 64.8 °F /  18.2 °C 60.8 °F /  16 °C 29.6in /  1002.4hPa WNW 0.9mph /  1.4km/h 2mph /  3.2km/h 87% 0in /  0.0mm 0 W/m2
22:03 64.8 °F /  18.2 °C 60.8 °F /  16 °C 29.6in /  1002.0hPa NW 0.9mph /  1.4km/h 3mph /  4.8km/h 87% 0in /  0.0mm 0 W/m2
22:08 64.8 °F /  18.2 °C 60.8 °F /  16 °C 29.6in /  1002.0hPa NW 0.9mph /  1.4km/h 2mph /  3.2km/h 87% 0in /  0.0mm 0 W/m2
22:13 64.8 °F /  18.2 °C 60.8 °F /  16 °C 29.6in /  1002.4hPa NW 2mph /  3.2km/h 4mph /  6.4km/h 87% 0in /  0.0mm 0 W/m2
22:18 64.6 °F /  18.1 °C 60.6 °F /  15.9 °C 29.6in /  1002.4hPa WNW 0.9mph /  1.4km/h 3mph /  4.8km/h 87% 0in /  0.0mm 0 W/m2
22:23 64.6 °F /  18.1 °C 60.6 °F /  15.9 °C 29.6in /  1002.4hPa NW 0.9mph /  1.4km/h 2mph /  3.2km/h 87% 0in /  0.0mm 0 W/m2
22:28 64.6 °F /  18.1 °C 61 °F /  16.1 °C 29.6in /  1002.4hPa Calm   3mph /  4.8km/h 88% 0in /  0.0mm 0 W/m2
22:33 64.4 °F /  18 °C 60.8 °F /  16 °C 29.6in /  1002.4hPa South 0.9mph /  1.4km/h 1mph /  1.6km/h 88% 0in /  0.0mm 0 W/m2
22:38 64.2 °F /  17.9 °C 60.6 °F /  15.9 °C 29.6in /  1002.4hPa WNW 0.9mph /  1.4km/h 2mph /  3.2km/h 88% 0in /  0.0mm 0 W/m2
22:43 64 °F /  17.8 °C 60.4 °F /  15.8 °C 29.6in /  1002.4hPa Calm   2mph /  3.2km/h 88% 0in /  0.0mm 0 W/m2
22:48 63.9 °F /  17.7 °C 60.6 °F /  15.9 °C 29.6in /  1002.4hPa NNW 0.9mph /  1.4km/h 2mph /  3.2km/h 89% 0in /  0.0mm 0 W/m2
22:53 63.9 °F /  17.7 °C 60.6 °F /  15.9 °C 29.6in /  1002.4hPa NW 0.9mph /  1.4km/h 3mph /  4.8km/h 89% 0in /  0.0mm 0 W/m2
22:58 63.9 °F /  17.7 °C 60.6 °F /  15.9 °C 29.6in /  1002.4hPa WNW 2mph /  3.2km/h 3mph /  4.8km/h 89% 0in /  0.0mm 0 W/m2
23:03 63.7 °F /  17.6 °C 60.4 °F /  15.8 °C 29.6in /  1002.0hPa Calm   3mph /  4.8km/h 89% 0in /  0.0mm 0 W/m2
23:08 63.7 °F /  17.6 °C 60.4 °F /  15.8 °C 29.6in /  1002.0hPa NNW 0.9mph /  1.4km/h 3mph /  4.8km/h 89% 0in /  0.0mm 0 W/m2
23:13 63.5 °F /  17.5 °C 59.9 °F /  15.5 °C 29.6in /  1002.0hPa West 0.9mph /  1.4km/h 2mph /  3.2km/h 88% 0in /  0.0mm 0 W/m2
23:18 63.3 °F /  17.4 °C 59.7 °F /  15.4 °C 29.6in /  1002.0hPa Calm   3mph /  4.8km/h 88% 0in /  0.0mm 0 W/m2
23:23 63.1 °F /  17.3 °C 59.5 °F /  15.3 °C 29.6in /  1002.0hPa Calm   2mph /  3.2km/h 88% 0in /  0.0mm 0 W/m2
23:28 63.1 °F /  17.3 °C 59.5 °F /  15.3 °C 29.6in /  1002.0hPa West 2mph /  3.2km/h 4mph /  6.4km/h 88% 0in /  0.0mm 0 W/m2
23:33 63.1 °F /  17.3 °C 59.5 °F /  15.3 °C 29.6in /  1002.0hPa Calm   6mph /  9.7km/h 88% 0in /  0.0mm 0 W/m2
23:38 63.1 °F /  17.3 °C 59.5 °F /  15.3 °C 29.6in /  1002.0hPa West 4mph /  6.4km/h 4mph /  6.4km/h 88% 0in /  0.0mm 0 W/m2
23:43 63.1 °F /  17.3 °C 59.5 °F /  15.3 °C 29.6in /  1001.7hPa WNW 2mph /  3.2km/h 3mph /  4.8km/h 88% 0in /  0.0mm 0 W/m2
23:48 63 °F /  17.2 °C 59.4 °F /  15.2 °C 29.6in /  1002.0hPa WNW 0.9mph /  1.4km/h 2mph /  3.2km/h 88% 0in /  0.0mm 0 W/m2
23:53 63 °F /  17.2 °C 59.4 °F /  15.2 °C 29.6in /  1002.0hPa NNW 4mph /  6.4km/h 6mph /  9.7km/h 88% 0in /  0.0mm 0 W/m2
23:58 62.8 °F /  17.1 °C 59.2 °F /  15.1 °C 29.6in /  1002.0hPa NE 4mph /  6.4km/h 4mph /  6.4km/h 88% 0in /  0.0mm 0 W/m2
Juneau County Weather
Compliments of Weather Underground - 4 mb